Suapan, Botswana
Current Conditions -  °F | °C
As of 6:00 AM on Thursday 23 Oct 2014 (Local Time) from FBFT Reporting Station
Clear Clear  
Wind Chill: 61°   Ceiling: Unl
Heat Index: 61°   Visibility: 6mi
Dew Point: 52°   Wind: 9mph
Humidity: 72%   Direction: 70°ENE
Pressure: 30.09"   Gusts: NA
Location:  20.47°S, 25.98°E
Report Text: FBFT 230400Z 07008KT CAVOK 16/11 Q1019
Loading
Personal Weather Stations






























Interactive Weather Map
Tropical Storm Tracking
New forecast layout! Learn more

10-Day Weather Forecast

Advertisements
Track Severe Weather on mobile